Hot Springs Natl Park, Arkansas
Current Conditions -  °F | °C
As of 1:53 PM on Tuesday 21 Oct 2014 (Local Time) from KHOT Reporting Station
Scattered Clouds Scattered Clouds  
Wind Chill: 77°   Ceiling: Unl
Heat Index: 78°   Visibility: 10mi
Dew Point: 55°   Wind: 6mph
Humidity: 46%   Direction: 190°S
Pressure: 30.08"   Gusts: NA
Location:  34.5°N, 93.05°W
Report Text: KHOT 211853Z AUTO 19005KT 10SM SCT043 25/13 A3008 RMK AO2 SLP180 T02500128
Loading
Personal Weather Stations






























Interactive Weather Map
Tropical Storm Tracking
New forecast layout! Learn more

10-Day Weather Forecast

Advertisements
Track Severe Weather on mobile